createdAt,value
2022-12-25T00:02:16.105Z,3.00
2022-12-25T00:04:44.011Z,1.00
2022-12-25T00:07:11.880Z,3.00
2022-12-25T00:09:39.634Z,3.00
2022-12-25T00:12:07.729Z,3.50
2022-12-25T00:14:35.772Z,4.00
2022-12-25T00:17:03.731Z,3.00
2022-12-25T00:19:31.497Z,1.00
2022-12-25T00:21:59.160Z,0.50
2022-12-25T00:24:26.876Z,3.00
2022-12-25T00:26:54.913Z,3.00
2022-12-25T00:29:22.811Z,3.50
2022-12-25T00:31:50.557Z,6.00
2022-12-25T00:34:18.962Z,3.00
2022-12-25T00:36:46.587Z,3.00
2022-12-25T00:39:14.301Z,3.00
2022-12-25T00:41:59.555Z,2.00
2022-12-25T00:44:27.280Z,1.00
2022-12-25T00:46:55.017Z,0.50
2022-12-25T00:49:23.069Z,3.00
2022-12-25T00:51:50.715Z,1.00
2022-12-25T00:54:18.361Z,1.50
2022-12-25T00:56:46.261Z,0.75
2022-12-25T00:59:13.891Z,1.00
2022-12-25T01:01:42.179Z,1.50
2022-12-25T01:04:10.175Z,3.00
2022-12-25T01:06:37.823Z,1.00
2022-12-25T01:09:22.888Z,3.75
2022-12-25T01:11:51.198Z,4.00
2022-12-25T01:14:18.808Z,0.50
2022-12-25T01:16:46.562Z,3.00
2022-12-25T01:19:14.312Z,3.00
2022-12-25T01:21:41.958Z,1.00
2022-12-25T01:24:09.892Z,3.25
2022-12-25T01:26:37.581Z,1.00
2022-12-25T01:29:05.196Z,3.00
2022-12-25T01:31:32.952Z,1.00
2022-12-25T01:34:00.652Z,2.50
2022-12-25T01:36:29.701Z,1.00
2022-12-25T01:38:57.371Z,1.00
2022-12-25T01:41:24.984Z,4.00
2022-12-25T01:43:52.613Z,1.50
2022-12-25T01:46:20.395Z,1.50
2022-12-25T01:48:48.067Z,1.50
2022-12-25T01:51:15.757Z,1.00
2022-12-25T01:53:43.427Z,2.50
2022-12-25T01:56:11.022Z,1.75
2022-12-25T01:58:39.019Z,3.00
2022-12-25T02:01:07.355Z,1.50
2022-12-25T02:03:35.062Z,1.00
2022-12-25T02:06:02.693Z,1.00
2022-12-25T02:08:30.377Z,0.00
2022-12-25T02:10:57.970Z,1.00
2022-12-25T02:13:26.229Z,3.00
2022-12-25T02:15:53.909Z,0.00
2022-12-25T02:18:21.513Z,3.25
2022-12-25T02:20:49.117Z,3.00
2022-12-25T02:23:16.842Z,1.00
2022-12-25T02:25:44.977Z,1.00
2022-12-25T02:28:12.560Z,1.00
2022-12-25T02:30:40.224Z,0.50
2022-12-25T02:33:21.672Z,1.00
2022-12-25T02:35:49.722Z,3.00
2022-12-25T02:38:17.373Z,0.00
2022-12-25T02:40:43.981Z,3.00
2022-12-25T02:43:29.379Z,0.50
2022-12-25T02:46:14.588Z,1.00
2022-12-25T02:49:00.017Z,1.00
2022-12-25T02:51:45.001Z,1.00
2022-12-25T02:54:30.143Z,1.25
2022-12-25T02:57:15.163Z,1.00
2022-12-25T03:00:00.215Z,1.00
2022-12-25T03:02:45.527Z,2.50
2022-12-25T03:05:26.937Z,1.50
2022-12-25T03:07:55.609Z,0.00
2022-12-25T03:10:40.791Z,1.00
2022-12-25T03:13:08.450Z,1.00
2022-12-25T03:16:08.122Z,2.00
2022-12-25T03:18:36.494Z,1.50
2022-12-25T03:21:21.354Z,1.00
2022-12-25T03:24:06.549Z,1.00
2022-12-25T03:26:51.917Z,1.50
2022-12-25T03:29:34.113Z,0.75
2022-12-25T03:32:01.756Z,1.00
2022-12-25T03:34:46.752Z,1.00
2022-12-25T03:37:28.157Z,2.00
2022-12-25T03:40:19.006Z,0.00
2022-12-25T03:43:04.338Z,1.00
2022-12-25T03:45:49.746Z,1.00
2022-12-25T03:51:43.850Z,0.50
2022-12-25T03:54:28.952Z,1.00
2022-12-25T03:57:13.941Z,0.00
2022-12-25T03:59:58.712Z,0.75
2022-12-25T04:02:43.722Z,1.00
2022-12-25T04:05:28.902Z,0.00
2022-12-25T04:08:14.277Z,1.00
2022-12-25T04:10:59.156Z,1.00
2022-12-25T04:13:44.111Z,0.50
2022-12-25T04:16:37.535Z,0.00
2022-12-25T04:19:22.509Z,0.50
2022-12-25T04:22:07.409Z,1.00
2022-12-25T04:24:52.887Z,1.00
2022-12-25T04:27:37.910Z,1.00
2022-12-25T04:30:23.466Z,2.50
2022-12-25T04:33:08.400Z,0.00
2022-12-25T04:35:53.280Z,0.00
2022-12-25T04:38:22.427Z,0.50
2022-12-25T04:40:50.034Z,2.00
2022-12-25T04:43:17.632Z,1.00
2022-12-25T04:45:45.196Z,1.00
2022-12-25T04:48:13.153Z,1.00
2022-12-25T04:50:40.771Z,0.25
2022-12-25T04:53:08.374Z,1.00
2022-12-25T04:55:35.952Z,1.00
2022-12-25T04:58:03.553Z,1.00
2022-12-25T05:00:31.515Z,1.00
2022-12-25T05:02:59.478Z,4.00
2022-12-25T05:05:27.213Z,2.00
2022-12-25T05:07:54.888Z,1.00
2022-12-25T05:10:22.462Z,1.00
2022-12-25T05:12:50.779Z,1.00
2022-12-25T05:15:18.565Z,2.50
2022-12-25T05:17:46.127Z,0.00
2022-12-25T05:20:13.791Z,0.00
2022-12-25T05:22:41.391Z,1.50
2022-12-25T05:25:09.344Z,0.75
2022-12-25T05:27:37.188Z,0.50
2022-12-25T05:30:04.760Z,0.00
2022-12-25T05:32:32.402Z,0.75
2022-12-25T05:35:00.878Z,0.25
2022-12-25T05:37:28.840Z,0.75
2022-12-25T05:39:56.605Z,1.00
2022-12-25T05:42:24.203Z,0.25
2022-12-25T05:44:51.798Z,0.00
2022-12-25T05:47:19.365Z,1.00
2022-12-25T05:49:47.387Z,0.00
2022-12-25T05:52:15.186Z,0.50
2022-12-25T05:54:42.784Z,1.00
2022-12-25T05:57:10.864Z,1.00
2022-12-25T05:59:38.470Z,1.00
2022-12-25T06:02:06.505Z,0.75
2022-12-25T06:04:34.448Z,0.00
2022-12-25T06:07:02.016Z,0.50
2022-12-25T06:09:29.597Z,0.50
2022-12-25T06:11:57.263Z,0.25
2022-12-25T06:14:25.204Z,0.00
2022-12-25T06:16:53.198Z,1.00
2022-12-25T06:19:20.915Z,1.50
2022-12-25T06:21:48.582Z,1.00
2022-12-25T06:24:21.003Z,0.00
2022-12-25T06:26:49.475Z,1.00
2022-12-25T06:29:17.272Z,0.00
2022-12-25T06:31:44.984Z,0.75
2022-12-25T06:34:16.356Z,0.00
2022-12-25T06:36:43.913Z,0.75
2022-12-25T06:39:11.910Z,1.00
2022-12-25T06:41:40.570Z,0.00
2022-12-25T06:44:08.132Z,0.00
2022-12-25T06:46:35.716Z,0.00
2022-12-25T06:49:03.361Z,0.75
2022-12-25T06:51:31.339Z,0.00
2022-12-25T06:53:59.199Z,0.75
2022-12-25T06:56:27.178Z,0.00
2022-12-25T06:58:54.755Z,1.00
2022-12-25T07:01:22.501Z,1.00
2022-12-25T07:03:52.457Z,0.25
2022-12-25T07:06:20.079Z,0.00
2022-12-25T07:08:47.703Z,0.00
2022-12-25T07:11:15.289Z,0.00
2022-12-25T07:13:42.863Z,0.00
2022-12-25T07:16:10.890Z,0.00
2022-12-25T07:18:38.762Z,0.00
2022-12-25T07:21:06.343Z,0.00
2022-12-25T07:23:33.955Z,0.00
2022-12-25T07:26:02.076Z,0.00
2022-12-25T07:28:29.893Z,0.00
2022-12-25T07:30:57.655Z,0.00
2022-12-25T07:33:25.327Z,0.00
2022-12-25T07:35:52.906Z,0.75
2022-12-25T07:38:20.499Z,1.00
2022-12-25T07:40:48.500Z,1.00
2022-12-25T07:43:16.252Z,1.00
2022-12-25T07:45:44.035Z,0.25
2022-12-25T07:48:16.400Z,1.00
2022-12-25T07:50:44.501Z,0.50
2022-12-25T07:53:12.497Z,1.00
2022-12-25T07:55:40.398Z,0.50
2022-12-25T07:58:07.970Z,0.00
2022-12-25T08:00:35.654Z,0.25
2022-12-25T08:03:03.445Z,0.00
2022-12-25T08:05:31.531Z,0.00
2022-12-25T08:08:00.679Z,1.00
2022-12-25T08:10:28.314Z,0.00
2022-12-25T08:12:55.945Z,0.00
2022-12-25T08:15:23.575Z,0.25
2022-12-25T08:17:51.548Z,1.00
2022-12-25T08:20:19.177Z,0.00
2022-12-25T08:22:46.767Z,1.00
2022-12-25T08:25:16.035Z,0.00
2022-12-25T08:27:43.698Z,0.00
2022-12-25T08:30:12.205Z,0.00
2022-12-25T08:32:40.187Z,0.00
2022-12-25T08:35:07.778Z,0.00
2022-12-25T08:37:35.393Z,0.00
2022-12-25T08:40:03.071Z,0.00
2022-12-25T08:42:31.028Z,0.25
2022-12-25T08:44:59.038Z,0.50
2022-12-25T08:47:26.702Z,1.00
2022-12-25T08:49:54.353Z,1.00
2022-12-25T08:52:22.160Z,2.50
2022-12-25T08:54:50.201Z,1.00
2022-12-25T08:57:18.087Z,1.00
2022-12-25T08:59:45.656Z,0.25
2022-12-25T09:02:13.439Z,0.00
2022-12-25T09:04:41.247Z,0.00
2022-12-25T09:07:09.257Z,1.50
2022-12-25T09:09:37.437Z,0.00
2022-12-25T09:12:05.421Z,0.00
2022-12-25T09:14:33.017Z,1.00
2022-12-25T09:17:00.736Z,0.25
2022-12-25T09:19:28.864Z,2.00
2022-12-25T09:21:56.807Z,0.25
2022-12-25T09:24:24.541Z,1.00
2022-12-25T09:26:52.208Z,0.50
2022-12-25T09:29:19.906Z,1.00
2022-12-25T09:31:48.174Z,0.50
2022-12-25T09:34:19.184Z,1.00
2022-12-25T09:36:46.978Z,0.50
2022-12-25T09:39:14.709Z,1.00
2022-12-25T09:41:42.409Z,0.00
2022-12-25T09:44:10.076Z,0.00
2022-12-25T09:46:38.084Z,0.00
2022-12-25T09:49:05.751Z,1.00
2022-12-25T09:51:33.417Z,4.00
2022-12-25T09:54:01.107Z,0.25
2022-12-25T09:56:29.385Z,1.00
2022-12-25T09:58:57.995Z,3.00
2022-12-25T10:01:25.835Z,1.00
2022-12-25T10:03:53.689Z,0.75
2022-12-25T10:06:21.506Z,0.50
2022-12-25T10:08:49.630Z,0.00
2022-12-25T10:11:17.762Z,0.50
2022-12-25T10:13:45.530Z,0.00
2022-12-25T10:16:13.487Z,0.25
2022-12-25T10:18:41.121Z,0.50
2022-12-25T10:21:13.058Z,0.00
2022-12-25T10:23:41.416Z,0.00
2022-12-25T10:26:09.086Z,1.00
2022-12-25T10:28:36.797Z,1.00
2022-12-25T10:31:04.678Z,1.00
2022-12-25T10:33:32.857Z,0.00
2022-12-25T10:36:00.852Z,1.00
2022-12-25T10:38:28.634Z,0.00
2022-12-25T10:40:56.766Z,0.00
2022-12-25T10:43:24.550Z,0.00
2022-12-25T10:45:52.814Z,0.00
2022-12-25T10:48:20.935Z,0.00
2022-12-25T10:50:48.756Z,0.00
2022-12-25T10:53:16.496Z,0.25
2022-12-25T10:55:44.620Z,0.75
2022-12-25T10:58:12.980Z,0.00
2022-12-25T11:00:41.053Z,0.00
2022-12-25T11:03:09.317Z,1.00
2022-12-25T11:05:37.262Z,0.00
2022-12-25T11:08:05.013Z,0.00
2022-12-25T11:10:33.391Z,0.00
2022-12-25T11:13:01.211Z,0.00
2022-12-25T11:15:28.985Z,0.00
2022-12-25T11:17:56.740Z,1.00
2022-12-25T11:20:24.489Z,0.00
2022-12-25T11:22:52.628Z,0.00
2022-12-25T11:25:21.846Z,0.00
2022-12-25T11:27:53.443Z,0.00
2022-12-25T11:30:21.594Z,0.00
2022-12-25T11:32:49.387Z,0.00
2022-12-25T11:35:17.785Z,0.00
2022-12-25T11:37:46.042Z,0.00
2022-12-25T11:40:13.848Z,0.00
2022-12-25T11:42:41.596Z,0.00
2022-12-25T11:45:09.491Z,0.00
2022-12-25T11:47:37.697Z,0.00
2022-12-25T11:50:05.630Z,0.75
2022-12-25T11:52:33.547Z,0.00
2022-12-25T11:55:01.344Z,0.00
2022-12-25T11:57:29.210Z,0.00
2022-12-25T11:59:57.122Z,0.00
2022-12-25T12:02:25.224Z,0.00
2022-12-25T12:04:53.062Z,0.00
2022-12-25T12:07:21.351Z,0.00
2022-12-25T12:09:49.125Z,0.00
2022-12-25T12:12:17.295Z,0.00
2022-12-25T12:14:45.432Z,0.00
2022-12-25T12:17:13.236Z,0.00
2022-12-25T12:19:41.111Z,0.00
2022-12-25T12:22:09.007Z,0.25
2022-12-25T12:24:37.433Z,0.00
2022-12-25T12:27:05.440Z,0.00
2022-12-25T12:29:33.811Z,0.00
2022-12-25T12:32:01.796Z,0.00
2022-12-25T12:34:29.701Z,0.00
2022-12-25T12:36:57.972Z,0.00
2022-12-25T12:39:25.945Z,0.00
2022-12-25T12:41:53.648Z,0.00
2022-12-25T12:44:22.791Z,0.00
2022-12-25T12:46:50.597Z,0.00
2022-12-25T12:49:18.824Z,0.00
2022-12-25T12:51:46.896Z,0.00
2022-12-25T12:54:14.601Z,0.00
2022-12-25T12:56:42.463Z,0.00
2022-12-25T12:59:10.448Z,0.00
2022-12-25T13:01:38.367Z,0.50
2022-12-25T13:04:06.355Z,0.00
2022-12-25T13:06:34.264Z,0.00
2022-12-25T13:09:02.183Z,1.00
2022-12-25T13:11:29.923Z,0.00
2022-12-25T13:13:58.165Z,0.00
2022-12-25T13:16:26.042Z,0.50
2022-12-25T13:18:53.841Z,1.50
2022-12-25T13:21:21.774Z,0.25
2022-12-25T13:23:49.623Z,0.00
2022-12-25T13:26:17.554Z,0.75
2022-12-25T13:28:45.760Z,1.00
2022-12-25T13:31:13.691Z,3.00
2022-12-25T13:33:42.063Z,0.00
2022-12-25T13:36:09.968Z,2.00
2022-12-25T13:38:37.781Z,3.00
2022-12-25T13:41:22.917Z,4.00
2022-12-25T13:43:50.957Z,3.00
2022-12-25T13:46:18.849Z,3.50
2022-12-25T13:48:46.780Z,3.00
2022-12-25T13:51:14.717Z,1.00
2022-12-25T13:53:42.974Z,3.00
2022-12-25T13:56:11.173Z,3.75
2022-12-25T13:58:39.725Z,1.50
2022-12-25T14:01:08.164Z,3.50
2022-12-25T14:03:36.140Z,2.00
2022-12-25T14:06:04.206Z,5.50
2022-12-25T14:08:32.346Z,4.00
2022-12-25T14:11:00.232Z,4.00
2022-12-25T14:13:28.839Z,3.50
2022-12-25T14:15:57.168Z,3.25
2022-12-25T14:18:25.060Z,3.75
2022-12-25T14:20:52.901Z,2.00
2022-12-25T14:23:20.819Z,4.00
2022-12-25T14:25:49.079Z,3.00
2022-12-25T14:28:16.883Z,4.00
2022-12-25T14:30:44.911Z,3.00
2022-12-25T14:33:12.956Z,4.00
2022-12-25T14:35:40.752Z,3.00
2022-12-25T14:38:09.293Z,3.50
2022-12-25T14:40:37.397Z,3.50
2022-12-25T14:43:05.199Z,3.25
2022-12-25T14:45:33.163Z,4.50
2022-12-25T14:48:01.184Z,6.25
2022-12-25T14:50:29.505Z,3.50
2022-12-25T14:52:57.580Z,5.00
2022-12-25T14:55:25.562Z,5.50
2022-12-25T14:57:53.833Z,6.00
2022-12-25T15:00:21.873Z,3.00
2022-12-25T15:02:50.441Z,3.75
2022-12-25T15:05:18.474Z,4.00
2022-12-25T15:07:46.385Z,3.00
2022-12-25T15:10:58.032Z,3.50
2022-12-25T15:13:02.453Z,5.50
2022-12-25T15:15:30.327Z,3.25
2022-12-25T15:17:58.219Z,4.50
2022-12-25T15:20:26.311Z,3.75
2022-12-25T15:23:18.609Z,4.00
2022-12-25T15:25:42.491Z,3.25
2022-12-25T15:28:13.044Z,3.50
2022-12-25T15:30:41.271Z,1.00
2022-12-25T15:33:09.082Z,1.00
2022-12-25T15:35:39.285Z,3.00
2022-12-25T15:38:07.454Z,4.00
2022-12-25T15:40:35.596Z,2.25
2022-12-25T15:43:11.191Z,3.50
2022-12-25T15:45:48.854Z,6.50
2022-12-25T15:48:16.851Z,2.50
2022-12-25T15:50:44.758Z,3.75
2022-12-25T15:53:13.031Z,1.00
2022-12-25T15:55:40.882Z,4.00
2022-12-25T15:58:08.580Z,4.00
2022-12-25T16:00:37.156Z,1.00
2022-12-25T16:03:05.172Z,0.75
2022-12-25T16:05:33.282Z,3.00
2022-12-25T16:08:01.018Z,6.00
2022-12-25T16:10:33.437Z,4.00
2022-12-25T16:13:05.167Z,3.75
2022-12-25T16:15:33.225Z,4.25
2022-12-25T16:18:01.420Z,3.75
2022-12-25T16:20:29.270Z,3.00
2022-12-25T16:22:57.248Z,4.00
2022-12-25T16:25:25.733Z,1.00
2022-12-25T16:27:53.702Z,5.00
2022-12-25T16:30:21.951Z,4.00
2022-12-25T16:32:49.895Z,4.00
2022-12-25T16:35:18.086Z,0.50
2022-12-25T16:37:46.456Z,4.00
2022-12-25T16:40:14.278Z,1.50
2022-12-25T16:42:43.894Z,4.00
2022-12-25T16:45:11.901Z,1.50
2022-12-25T16:47:39.786Z,5.00
2022-12-25T16:50:08.113Z,4.50
2022-12-25T16:52:35.971Z,3.25
2022-12-25T16:55:04.034Z,3.25
2022-12-25T16:57:31.863Z,1.00
2022-12-25T17:00:00.410Z,1.00
2022-12-25T17:02:28.639Z,5.50
2022-12-25T17:04:57.035Z,3.50
2022-12-25T17:07:25.340Z,3.00
2022-12-25T17:09:53.230Z,5.00
2022-12-25T17:12:21.206Z,3.50
2022-12-25T17:14:49.587Z,5.00
2022-12-25T17:17:17.412Z,1.00
2022-12-25T17:19:45.248Z,6.00
2022-12-25T17:22:13.239Z,5.00
2022-12-25T17:24:41.749Z,5.00
2022-12-25T17:27:10.367Z,2.00
2022-12-25T17:29:39.428Z,3.50
2022-12-25T17:32:07.427Z,3.25
2022-12-25T17:34:35.119Z,4.00
2022-12-25T17:37:03.037Z,3.75
2022-12-25T17:39:31.228Z,3.75
2022-12-25T17:41:59.173Z,3.00
2022-12-25T17:44:27.627Z,3.00
2022-12-25T17:46:55.432Z,5.00
2022-12-25T17:49:23.271Z,4.00
2022-12-25T17:51:51.640Z,3.25
2022-12-25T17:54:19.526Z,4.00
2022-12-25T17:56:48.158Z,3.00
2022-12-25T17:59:18.983Z,4.00
2022-12-25T18:01:47.413Z,4.00
2022-12-25T18:04:15.349Z,3.25
2022-12-25T18:06:43.443Z,4.00
2022-12-25T18:09:11.535Z,3.50
2022-12-25T18:11:39.814Z,3.00
2022-12-25T18:14:07.656Z,4.00
2022-12-25T18:16:35.943Z,4.00
2022-12-25T18:19:03.900Z,3.00
2022-12-25T18:21:32.241Z,4.00
2022-12-25T18:24:00.341Z,3.00
2022-12-25T18:26:28.996Z,3.50
2022-12-25T18:28:57.507Z,4.00
2022-12-25T18:31:25.372Z,6.00
2022-12-25T18:33:54.457Z,4.00
2022-12-25T18:36:22.402Z,3.00
2022-12-25T18:38:50.205Z,3.00
2022-12-25T18:41:18.542Z,4.00
2022-12-25T18:43:52.947Z,3.75
2022-12-25T18:46:24.807Z,3.50
2022-12-25T18:48:53.032Z,4.00
2022-12-25T18:51:21.443Z,5.75
2022-12-25T18:53:49.279Z,2.50
2022-12-25T18:56:17.857Z,6.00
2022-12-25T18:58:46.355Z,4.00
2022-12-25T19:01:14.190Z,3.50
2022-12-25T19:03:42.598Z,4.00
2022-12-25T19:06:10.301Z,5.00
2022-12-25T19:08:38.063Z,7.00
2022-12-25T19:11:05.830Z,3.00
2022-12-25T19:13:33.673Z,5.50
2022-12-25T19:16:02.257Z,4.00
2022-12-25T19:18:30.251Z,6.50
2022-12-25T19:20:58.130Z,5.50
2022-12-25T19:23:26.118Z,3.00
2022-12-25T19:25:54.026Z,6.50
2022-12-25T19:28:21.871Z,3.50
2022-12-25T19:30:49.739Z,3.75
2022-12-25T19:33:18.183Z,3.00
2022-12-25T19:35:47.014Z,7.50
2022-12-25T19:38:15.369Z,6.00
2022-12-25T19:41:00.613Z,6.00
2022-12-25T19:43:28.799Z,3.00
2022-12-25T19:45:56.694Z,3.75
2022-12-25T19:48:24.588Z,3.75
2022-12-25T19:50:52.441Z,5.50
2022-12-25T19:53:23.618Z,4.00
2022-12-25T19:55:52.669Z,6.00
2022-12-25T19:58:22.444Z,4.25
2022-12-25T20:00:50.288Z,4.00
2022-12-25T20:03:18.255Z,8.25
2022-12-25T20:05:46.555Z,3.75
2022-12-25T20:08:14.369Z,5.00
2022-12-25T20:10:42.522Z,3.75
2022-12-25T20:13:10.412Z,0.00
2022-12-25T20:15:38.190Z,4.00
2022-12-25T20:18:06.868Z,2.75
2022-12-25T20:20:34.702Z,5.00
2022-12-25T20:23:03.076Z,3.00
2022-12-25T20:25:30.875Z,7.50
2022-12-25T20:27:58.754Z,4.50
2022-12-25T20:30:27.212Z,4.00
2022-12-25T20:32:55.668Z,4.00
2022-12-25T20:35:24.204Z,6.25
2022-12-25T20:37:51.908Z,8.00
2022-12-25T20:40:20.636Z,4.00
2022-12-25T20:42:49.112Z,6.00
2022-12-25T20:45:16.975Z,9.25
2022-12-25T20:47:44.984Z,5.50
2022-12-25T20:50:12.831Z,4.00
2022-12-25T20:52:40.658Z,6.00
2022-12-25T20:55:08.912Z,6.00
2022-12-25T20:57:37.029Z,6.00
2022-12-25T21:00:05.274Z,6.00
2022-12-25T21:02:34.635Z,3.50
2022-12-25T21:05:04.426Z,4.00
2022-12-25T21:07:32.708Z,6.00
2022-12-25T21:10:00.757Z,3.50
2022-12-25T21:12:28.850Z,4.00
2022-12-25T21:14:56.627Z,5.00
2022-12-25T21:17:24.585Z,6.00
2022-12-25T21:19:52.829Z,4.00
2022-12-25T21:22:20.620Z,3.00
2022-12-25T21:24:52.194Z,6.00
2022-12-25T21:27:20.417Z,5.50
2022-12-25T21:29:48.306Z,3.75
2022-12-25T21:32:33.863Z,3.75
2022-12-25T21:35:02.018Z,1.00
2022-12-25T21:37:29.871Z,5.50
2022-12-25T21:39:57.835Z,4.00
2022-12-25T21:42:26.145Z,3.25
2022-12-25T21:44:54.433Z,4.50
2022-12-25T21:47:22.499Z,1.50
2022-12-25T21:50:13.311Z,3.25
2022-12-25T21:52:41.209Z,3.75
2022-12-25T21:55:09.689Z,4.00
2022-12-25T21:57:37.700Z,4.00
2022-12-25T22:00:05.594Z,3.25
2022-12-25T22:02:33.610Z,3.75
2022-12-25T22:05:01.601Z,5.00
2022-12-25T22:07:29.388Z,6.00
2022-12-25T22:09:57.561Z,4.00
2022-12-25T22:12:42.826Z,5.50
2022-12-25T22:15:10.663Z,5.00
2022-12-25T22:17:57.033Z,6.00
2022-12-25T22:20:25.056Z,6.00
2022-12-25T22:22:52.879Z,5.75
2022-12-25T22:25:20.728Z,5.50
2022-12-25T22:27:48.842Z,3.75
2022-12-25T22:30:16.944Z,1.50
2022-12-25T22:32:44.833Z,3.75
2022-12-25T22:35:13.649Z,3.75
2022-12-25T22:37:41.557Z,6.00
2022-12-25T22:40:09.329Z,6.00
2022-12-25T22:42:37.733Z,3.00
2022-12-25T22:45:05.517Z,5.50
2022-12-25T22:47:33.419Z,3.00
2022-12-25T22:50:01.173Z,1.00
2022-12-25T22:52:28.933Z,3.00
2022-12-25T22:54:57.103Z,1.50
2022-12-25T22:57:24.972Z,3.00
2022-12-25T22:59:53.066Z,1.00
2022-12-25T23:02:21.334Z,1.00
2022-12-25T23:04:49.307Z,0.00
2022-12-25T23:07:17.482Z,0.00
2022-12-25T23:09:45.367Z,0.00
2022-12-25T23:12:33.722Z,0.25
2022-12-25T23:15:00.444Z,0.50
2022-12-25T23:17:45.961Z,0.50
2022-12-25T23:20:30.505Z,1.00
2022-12-25T23:23:15.405Z,1.00
2022-12-25T23:26:00.445Z,0.50
2022-12-25T23:28:45.728Z,3.00
2022-12-25T23:31:13.609Z,1.00
2022-12-25T23:33:41.714Z,1.00
2022-12-25T23:36:09.473Z,2.00
2022-12-25T23:38:37.222Z,2.00
2022-12-25T23:41:05.308Z,1.00
2022-12-25T23:43:33.383Z,5.00
2022-12-25T23:46:01.310Z,3.25
2022-12-25T23:48:29.052Z,3.00
2022-12-25T23:50:56.704Z,3.25
2022-12-25T23:53:24.871Z,3.00
2022-12-25T23:55:55.953Z,3.00
2022-12-25T23:58:23.833Z,4.50
